UAE821 OMDB-OEDF
Flight info
| Callsign | UAE821 |
|---|---|
| Flight time | 0h 56m |
| Altitude | 26000 |
| Route | NABIX3F NABIX P699 ORMID Y856 NARMI J735 KFA DCT |
| Aircraft | B77W/H-SDE1E2E3FGHIJ2J3J4J5M1RWXY/LB1D1 |
Departure
| Time | 2026-04-22 17:19 |
|---|---|
| Airport | Dubai International Airport (OMDB) |
Arrival
| Time | 2026-04-22 18:16 |
|---|---|
| Airport | King Fahd International Airport (OEDF) |
| Time | Latitude | Longitude | Altitude | Speed | Heading |
|---|---|---|---|---|---|
| 2026-04-22 16:43 | 25.25330 | 55.35497 | 31 ft | 0 kts | 211° |
| 2026-04-22 17:10 | 25.25332 | 55.35499 | 26 ft | 3 kts | 212° |
| 2026-04-22 17:10 | 25.25354 | 55.35516 | 30 ft | 4 kts | 222° |
| 2026-04-22 17:10 | 25.25372 | 55.35537 | 32 ft | 4 kts | 235° |
| 2026-04-22 17:11 | 25.25385 | 55.35563 | 32 ft | 4 kts | 252° |
| 2026-04-22 17:11 | 25.25389 | 55.35591 | 33 ft | 4 kts | 282° |
| 2026-04-22 17:11 | 25.25386 | 55.35604 | 32 ft | 0 kts | 302° |
| 2026-04-22 17:12 | 25.25397 | 55.35584 | 34 ft | 10 kts | 301° |
| 2026-04-22 17:13 | 25.25435 | 55.35514 | 29 ft | 11 kts | 301° |
| 2026-04-22 17:13 | 25.25475 | 55.35444 | 30 ft | 12 kts | 302° |
| 2026-04-22 17:13 | 25.25547 | 55.35318 | 29 ft | 27 kts | 302° |
| 2026-04-22 17:13 | 25.25641 | 55.35168 | 29 ft | 13 kts | 329° |
| 2026-04-22 17:14 | 25.25725 | 55.35186 | 28 ft | 13 kts | 26° |
| 2026-04-22 17:14 | 25.25802 | 55.35235 | 30 ft | 13 kts | 31° |
| 2026-04-22 17:14 | 25.25878 | 55.35287 | 29 ft | 14 kts | 32° |
| 2026-04-22 17:14 | 25.25990 | 55.35398 | 26 ft | 28 kts | 64° |
| 2026-04-22 17:15 | 25.25992 | 55.35538 | 27 ft | 28 kts | 113° |
| 2026-04-22 17:15 | 25.25858 | 55.35790 | 27 ft | 28 kts | 122° |
| 2026-04-22 17:15 | 25.25753 | 55.35975 | 27 ft | 28 kts | 122° |
| 2026-04-22 17:15 | 25.25650 | 55.36161 | 28 ft | 28 kts | 121° |
| 2026-04-22 17:16 | 25.25545 | 55.36346 | 27 ft | 28 kts | 122° |
| 2026-04-22 17:16 | 25.25440 | 55.36531 | 27 ft | 28 kts | 122° |
| 2026-04-22 17:16 | 25.25336 | 55.36717 | 26 ft | 28 kts | 121° |
| 2026-04-22 17:16 | 25.25232 | 55.36902 | 27 ft | 28 kts | 121° |
| 2026-04-22 17:17 | 25.25129 | 55.37085 | 28 ft | 28 kts | 122° |
| 2026-04-22 17:17 | 25.25026 | 55.37271 | 28 ft | 28 kts | 120° |
| 2026-04-22 17:17 | 25.24919 | 55.37457 | 28 ft | 28 kts | 122° |
| 2026-04-22 17:17 | 25.24815 | 55.37643 | 28 ft | 28 kts | 122° |
| 2026-04-22 17:18 | 25.24711 | 55.37828 | 27 ft | 28 kts | 122° |
| 2026-04-22 17:18 | 25.24677 | 55.37943 | 27 ft | 14 kts | 64° |
| 2026-04-22 17:18 | 25.24750 | 55.38014 | 29 ft | 14 kts | 34° |
| 2026-04-22 17:18 | 25.24808 | 55.38030 | 30 ft | 8 kts | 323° |
| 2026-04-22 17:19 | 25.25238 | 55.37253 | 33 ft | 162 kts | 302° |
| 2026-04-22 17:19 | 25.26729 | 55.34710 | 2037 ft | 202 kts | 300° |
| 2026-04-22 17:20 | 25.28169 | 55.32041 | 3302 ft | 207 kts | 300° |
| 2026-04-22 17:20 | 25.29018 | 55.28997 | 3693 ft | 244 kts | 261° |
| 2026-04-22 17:21 | 25.28733 | 55.27119 | 4282 ft | 251 kts | 260° |
| 2026-04-22 17:21 | 25.28211 | 55.23191 | 5705 ft | 263 kts | 261° |
| 2026-04-22 17:22 | 25.27748 | 55.19167 | 7320 ft | 267 kts | 261° |
| 2026-04-22 17:22 | 25.27526 | 55.17111 | 8071 ft | 271 kts | 261° |
| 2026-04-22 17:22 | 25.27094 | 55.12913 | 9642 ft | 278 kts | 261° |
| 2026-04-22 17:23 | 25.26879 | 55.10779 | 10346 ft | 283 kts | 262° |
| 2026-04-22 17:23 | 25.26492 | 55.06914 | 10810 ft | 324 kts | 262° |
| 2026-04-22 17:23 | 25.26150 | 55.03464 | 11169 ft | 355 kts | 262° |
| 2026-04-22 17:24 | 25.25969 | 55.01616 | 11598 ft | 362 kts | 262° |
| 2026-04-22 17:24 | 25.25700 | 54.98854 | 12356 ft | 370 kts | 262° |
| 2026-04-22 17:24 | 25.25422 | 54.96011 | 13265 ft | 375 kts | 262° |
| 2026-04-22 17:24 | 25.25142 | 54.93140 | 14170 ft | 378 kts | 262° |
| 2026-04-22 17:25 | 25.24858 | 54.90240 | 14760 ft | 378 kts | 263° |
| 2026-04-22 17:25 | 25.24573 | 54.87347 | 14801 ft | 380 kts | 263° |
| 2026-04-22 17:25 | 25.24285 | 54.84442 | 15252 ft | 382 kts | 263° |
| 2026-04-22 17:25 | 25.23997 | 54.81546 | 16465 ft | 374 kts | 263° |
| 2026-04-22 17:26 | 25.23779 | 54.79061 | 17612 ft | 367 kts | 267° |
| 2026-04-22 17:26 | 25.23901 | 54.76220 | 18272 ft | 380 kts | 277° |
| 2026-04-22 17:26 | 25.24528 | 54.73322 | 18754 ft | 394 kts | 286° |
| 2026-04-22 17:26 | 25.25517 | 54.70458 | 19353 ft | 403 kts | 290° |
| 2026-04-22 17:27 | 25.26563 | 54.67571 | 20080 ft | 407 kts | 290° |
| 2026-04-22 17:27 | 25.27620 | 54.64654 | 20881 ft | 409 kts | 290° |
| 2026-04-22 17:27 | 25.28677 | 54.61729 | 21652 ft | 412 kts | 289° |
| 2026-04-22 17:27 | 25.29742 | 54.58767 | 22365 ft | 416 kts | 289° |
| 2026-04-22 17:28 | 25.30805 | 54.55797 | 23259 ft | 415 kts | 289° |
| 2026-04-22 17:28 | 25.31859 | 54.52847 | 24140 ft | 410 kts | 289° |
| 2026-04-22 17:28 | 25.32899 | 54.49925 | 25054 ft | 406 kts | 289° |
| 2026-04-22 17:28 | 25.33930 | 54.47025 | 25681 ft | 405 kts | 289° |
| 2026-04-22 17:29 | 25.34958 | 54.44126 | 25810 ft | 405 kts | 290° |
| 2026-04-22 17:29 | 25.35979 | 54.41226 | 25809 ft | 404 kts | 288° |
| 2026-04-22 17:29 | 25.36796 | 54.38268 | 25807 ft | 402 kts | 282° |
| 2026-04-22 17:29 | 25.37293 | 54.35239 | 25814 ft | 401 kts | 277° |
| 2026-04-22 17:30 | 25.37692 | 54.32182 | 25820 ft | 402 kts | 277° |
| 2026-04-22 17:30 | 25.38100 | 54.29125 | 25822 ft | 402 kts | 278° |
| 2026-04-22 17:30 | 25.38514 | 54.26064 | 25822 ft | 403 kts | 278° |
| 2026-04-22 17:30 | 25.38937 | 54.22957 | 25841 ft | 417 kts | 278° |
| 2026-04-22 17:31 | 25.39379 | 54.19724 | 25841 ft | 435 kts | 278° |
| 2026-04-22 17:31 | 25.39840 | 54.16351 | 25839 ft | 451 kts | 278° |
| 2026-04-22 17:31 | 25.40318 | 54.12864 | 25839 ft | 464 kts | 278° |
| 2026-04-22 17:31 | 25.40803 | 54.09322 | 25831 ft | 466 kts | 278° |
| 2026-04-22 17:32 | 25.41289 | 54.05772 | 25827 ft | 466 kts | 278° |
| 2026-04-22 17:32 | 25.41772 | 54.02236 | 25821 ft | 466 kts | 278° |
| 2026-04-22 17:32 | 25.42255 | 53.98696 | 25820 ft | 465 kts | 278° |
| 2026-04-22 17:32 | 25.42736 | 53.95155 | 25819 ft | 465 kts | 278° |
| 2026-04-22 17:33 | 25.43054 | 53.92816 | 25825 ft | 465 kts | 278° |
| 2026-04-22 17:33 | 25.43694 | 53.88091 | 25825 ft | 464 kts | 278° |
| 2026-04-22 17:33 | 25.44171 | 53.84557 | 25824 ft | 464 kts | 278° |
| 2026-04-22 17:33 | 25.44641 | 53.81074 | 25824 ft | 464 kts | 278° |
| 2026-04-22 17:34 | 25.45123 | 53.77497 | 25831 ft | 464 kts | 278° |
| 2026-04-22 17:34 | 25.45597 | 53.73964 | 25833 ft | 464 kts | 278° |
| 2026-04-22 17:34 | 25.46065 | 53.70482 | 25823 ft | 464 kts | 278° |
| 2026-04-22 17:34 | 25.46664 | 53.66969 | 25830 ft | 465 kts | 283° |
| 2026-04-22 17:35 | 25.47582 | 53.63536 | 25828 ft | 466 kts | 286° |
| 2026-04-22 17:35 | 25.48554 | 53.60116 | 25834 ft | 466 kts | 286° |
| 2026-04-22 17:35 | 25.49518 | 53.56688 | 25830 ft | 466 kts | 286° |
| 2026-04-22 17:35 | 25.50472 | 53.53257 | 25833 ft | 466 kts | 285° |
| 2026-04-22 17:36 | 25.51418 | 53.49827 | 25841 ft | 466 kts | 285° |
| 2026-04-22 17:36 | 25.52360 | 53.46390 | 25832 ft | 466 kts | 285° |
| 2026-04-22 17:36 | 25.53298 | 53.42951 | 25831 ft | 466 kts | 285° |
| 2026-04-22 17:36 | 25.54232 | 53.39522 | 25829 ft | 466 kts | 285° |
| 2026-04-22 17:37 | 25.55166 | 53.36088 | 25829 ft | 466 kts | 285° |
| 2026-04-22 17:37 | 25.56099 | 53.32653 | 25834 ft | 465 kts | 285° |
| 2026-04-22 17:37 | 25.57032 | 53.29218 | 25831 ft | 465 kts | 285° |
| 2026-04-22 17:37 | 25.57962 | 53.25790 | 25829 ft | 465 kts | 285° |
| 2026-04-22 17:38 | 25.58891 | 53.22361 | 25830 ft | 465 kts | 285° |
| 2026-04-22 17:38 | 25.59822 | 53.18923 | 25835 ft | 466 kts | 285° |
| 2026-04-22 17:38 | 25.60751 | 53.15488 | 25833 ft | 466 kts | 285° |
| 2026-04-22 17:38 | 25.61682 | 53.12044 | 25837 ft | 466 kts | 285° |
| 2026-04-22 17:39 | 25.62611 | 53.08603 | 25830 ft | 466 kts | 285° |
| 2026-04-22 17:39 | 25.63540 | 53.05159 | 25848 ft | 466 kts | 285° |
| 2026-04-22 17:39 | 25.65396 | 52.98268 | 25839 ft | 466 kts | 285° |
| 2026-04-22 17:40 | 25.66319 | 52.94833 | 25840 ft | 466 kts | 285° |
| 2026-04-22 17:40 | 25.67247 | 52.91381 | 25833 ft | 466 kts | 285° |
| 2026-04-22 17:40 | 25.68170 | 52.87940 | 25837 ft | 466 kts | 285° |
| 2026-04-22 17:40 | 25.69094 | 52.84494 | 25843 ft | 466 kts | 285° |
| 2026-04-22 17:41 | 25.70015 | 52.81055 | 25836 ft | 466 kts | 285° |
| 2026-04-22 17:41 | 25.70937 | 52.77606 | 25845 ft | 466 kts | 285° |
| 2026-04-22 17:41 | 25.71858 | 52.74162 | 25838 ft | 466 kts | 285° |
| 2026-04-22 17:41 | 25.72777 | 52.70719 | 25845 ft | 466 kts | 285° |
| 2026-04-22 17:42 | 25.73694 | 52.67277 | 25837 ft | 466 kts | 285° |
| 2026-04-22 17:42 | 25.74612 | 52.63834 | 25844 ft | 466 kts | 285° |
| 2026-04-22 17:42 | 25.75529 | 52.60388 | 25840 ft | 466 kts | 285° |
| 2026-04-22 17:42 | 25.76445 | 52.56942 | 25836 ft | 465 kts | 285° |
| 2026-04-22 17:43 | 25.77359 | 52.53502 | 25843 ft | 465 kts | 285° |
| 2026-04-22 17:43 | 25.78273 | 52.50057 | 25836 ft | 465 kts | 285° |
| 2026-04-22 17:43 | 25.79185 | 52.46612 | 25845 ft | 465 kts | 285° |
| 2026-04-22 17:43 | 25.80096 | 52.43174 | 25844 ft | 465 kts | 285° |
| 2026-04-22 17:44 | 25.81005 | 52.39737 | 25841 ft | 465 kts | 285° |
| 2026-04-22 17:44 | 25.81914 | 52.36296 | 25839 ft | 464 kts | 285° |
| 2026-04-22 17:44 | 25.82822 | 52.32854 | 25845 ft | 464 kts | 285° |
| 2026-04-22 17:44 | 25.83729 | 52.29415 | 25846 ft | 464 kts | 285° |
| 2026-04-22 17:45 | 25.84635 | 52.25973 | 25839 ft | 464 kts | 285° |
| 2026-04-22 17:45 | 25.85541 | 52.22532 | 25845 ft | 464 kts | 285° |
| 2026-04-22 17:45 | 25.86446 | 52.19088 | 25858 ft | 464 kts | 284° |
| 2026-04-22 17:45 | 25.87348 | 52.15650 | 25849 ft | 465 kts | 284° |
| 2026-04-22 17:46 | 25.88253 | 52.12201 | 25847 ft | 465 kts | 284° |
| 2026-04-22 17:46 | 25.89153 | 52.08764 | 25852 ft | 465 kts | 284° |
| 2026-04-22 17:46 | 25.90056 | 52.05313 | 25849 ft | 465 kts | 284° |
| 2026-04-22 17:46 | 25.90946 | 52.01912 | 25845 ft | 464 kts | 284° |
| 2026-04-22 17:47 | 25.91856 | 51.98424 | 25845 ft | 464 kts | 284° |
| 2026-04-22 17:47 | 25.92754 | 51.94983 | 25842 ft | 464 kts | 284° |
| 2026-04-22 17:47 | 25.93640 | 51.91584 | 25843 ft | 464 kts | 284° |
| 2026-04-22 17:47 | 25.94549 | 51.88090 | 25836 ft | 464 kts | 284° |
| 2026-04-22 17:48 | 25.95141 | 51.85813 | 25836 ft | 464 kts | 284° |
| 2026-04-22 17:48 | 25.96326 | 51.81253 | 25839 ft | 464 kts | 284° |
| 2026-04-22 17:48 | 25.97219 | 51.77813 | 25845 ft | 464 kts | 284° |
| 2026-04-22 17:48 | 25.98112 | 51.74369 | 25842 ft | 463 kts | 284° |
| 2026-04-22 17:49 | 25.99002 | 51.70932 | 25840 ft | 463 kts | 284° |
| 2026-04-22 17:49 | 25.99890 | 51.67499 | 25831 ft | 462 kts | 284° |
| 2026-04-22 17:49 | 26.00777 | 51.64065 | 25841 ft | 462 kts | 284° |
| 2026-04-22 17:49 | 26.01664 | 51.60630 | 25828 ft | 462 kts | 284° |
| 2026-04-22 17:50 | 26.02548 | 51.57201 | 25836 ft | 462 kts | 284° |
| 2026-04-22 17:50 | 26.03433 | 51.53766 | 25834 ft | 462 kts | 284° |
| 2026-04-22 17:50 | 26.04314 | 51.50338 | 25842 ft | 462 kts | 284° |
| 2026-04-22 17:50 | 26.05198 | 51.46902 | 25839 ft | 462 kts | 284° |
| 2026-04-22 17:51 | 26.06079 | 51.43471 | 25829 ft | 462 kts | 284° |
| 2026-04-22 17:51 | 26.06959 | 51.40039 | 25834 ft | 462 kts | 284° |
| 2026-04-22 17:51 | 26.07840 | 51.36598 | 25830 ft | 462 kts | 284° |
| 2026-04-22 17:51 | 26.08719 | 51.33166 | 25842 ft | 461 kts | 284° |
| 2026-04-22 17:52 | 26.09594 | 51.29744 | 25835 ft | 459 kts | 284° |
| 2026-04-22 17:52 | 26.10465 | 51.26333 | 25835 ft | 458 kts | 284° |
| 2026-04-22 17:52 | 26.11333 | 51.22931 | 25836 ft | 457 kts | 284° |
| 2026-04-22 17:52 | 26.12199 | 51.19531 | 25837 ft | 456 kts | 284° |
| 2026-04-22 17:53 | 26.13063 | 51.16139 | 25838 ft | 456 kts | 284° |
| 2026-04-22 17:53 | 26.13921 | 51.12762 | 25659 ft | 453 kts | 284° |
| 2026-04-22 17:53 | 26.14780 | 51.09382 | 25297 ft | 454 kts | 284° |
| 2026-04-22 17:53 | 26.15638 | 51.05999 | 24924 ft | 454 kts | 284° |
| 2026-04-22 17:54 | 26.16495 | 51.02619 | 24645 ft | 453 kts | 284° |
| 2026-04-22 17:54 | 26.17347 | 50.99255 | 24401 ft | 451 kts | 284° |
| 2026-04-22 17:54 | 26.18195 | 50.95902 | 24164 ft | 449 kts | 284° |
| 2026-04-22 17:54 | 26.19041 | 50.92555 | 23968 ft | 447 kts | 283° |
| 2026-04-22 17:55 | 26.19596 | 50.90356 | 23855 ft | 445 kts | 283° |
| 2026-04-22 17:55 | 26.20711 | 50.85937 | 23558 ft | 443 kts | 283° |
| 2026-04-22 17:55 | 26.21542 | 50.82632 | 23238 ft | 444 kts | 283° |
| 2026-04-22 17:55 | 26.22374 | 50.79324 | 22960 ft | 443 kts | 283° |
| 2026-04-22 17:56 | 26.23202 | 50.76028 | 22743 ft | 441 kts | 283° |
| 2026-04-22 17:56 | 26.24026 | 50.72748 | 22541 ft | 438 kts | 283° |
| 2026-04-22 17:56 | 26.24844 | 50.69488 | 22311 ft | 437 kts | 283° |
| 2026-04-22 17:56 | 26.25644 | 50.66231 | 22083 ft | 435 kts | 282° |
| 2026-04-22 17:57 | 26.26228 | 50.62937 | 21931 ft | 432 kts | 276° |
| 2026-04-22 17:57 | 26.26627 | 50.59625 | 21903 ft | 432 kts | 276° |
| 2026-04-22 17:57 | 26.27039 | 50.56298 | 21862 ft | 434 kts | 276° |
| 2026-04-22 17:57 | 26.27462 | 50.52973 | 21854 ft | 433 kts | 276° |
| 2026-04-22 17:58 | 26.27891 | 50.49650 | 21850 ft | 433 kts | 276° |
| 2026-04-22 17:58 | 26.28319 | 50.46341 | 21814 ft | 430 kts | 276° |
| 2026-04-22 17:58 | 26.28743 | 50.43062 | 21553 ft | 426 kts | 276° |
| 2026-04-22 17:58 | 26.29163 | 50.39795 | 21198 ft | 425 kts | 276° |
| 2026-04-22 17:59 | 26.29582 | 50.36543 | 20862 ft | 424 kts | 277° |
| 2026-04-22 17:59 | 26.30153 | 50.33326 | 20562 ft | 423 kts | 282° |
| 2026-04-22 17:59 | 26.30973 | 50.30172 | 20272 ft | 423 kts | 286° |
| 2026-04-22 17:59 | 26.32045 | 50.27116 | 19997 ft | 422 kts | 289° |
| 2026-04-22 18:00 | 26.32781 | 50.25115 | 19813 ft | 421 kts | 289° |
| 2026-04-22 18:00 | 26.34257 | 50.21081 | 19462 ft | 419 kts | 289° |
| 2026-04-22 18:00 | 26.35347 | 50.18082 | 19211 ft | 417 kts | 289° |
| 2026-04-22 18:00 | 26.36366 | 50.15263 | 19028 ft | 414 kts | 288° |
| 2026-04-22 18:01 | 26.37354 | 50.12279 | 18978 ft | 406 kts | 286° |
| 2026-04-22 18:01 | 26.38185 | 50.09310 | 18923 ft | 394 kts | 279° |
| 2026-04-22 18:01 | 26.38331 | 50.06340 | 18855 ft | 373 kts | 263° |
| 2026-04-22 18:01 | 26.37839 | 50.03608 | 18711 ft | 347 kts | 254° |
| 2026-04-22 18:02 | 26.37094 | 50.01168 | 18590 ft | 327 kts | 248° |
| 2026-04-22 18:02 | 26.36077 | 49.98988 | 18475 ft | 309 kts | 238° |
| 2026-04-22 18:02 | 26.34867 | 49.97047 | 18335 ft | 290 kts | 237° |
| 2026-04-22 18:02 | 26.33728 | 49.95255 | 17867 ft | 278 kts | 237° |
| 2026-04-22 18:03 | 26.32618 | 49.93501 | 16993 ft | 277 kts | 237° |
| 2026-04-22 18:03 | 26.31527 | 49.91761 | 16154 ft | 278 kts | 237° |
| 2026-04-22 18:03 | 26.30426 | 49.89998 | 15381 ft | 276 kts | 237° |
| 2026-04-22 18:03 | 26.29338 | 49.88250 | 14669 ft | 273 kts | 237° |
| 2026-04-22 18:04 | 26.28263 | 49.86522 | 13970 ft | 270 kts | 237° |
| 2026-04-22 18:04 | 26.27209 | 49.84825 | 13370 ft | 263 kts | 238° |
| 2026-04-22 18:04 | 26.26511 | 49.82992 | 12752 ft | 254 kts | 259° |
| 2026-04-22 18:04 | 26.26455 | 49.81051 | 12173 ft | 250 kts | 274° |
| 2026-04-22 18:05 | 26.26859 | 49.79176 | 11548 ft | 250 kts | 288° |
| 2026-04-22 18:05 | 26.27742 | 49.77488 | 10883 ft | 256 kts | 305° |
| 2026-04-22 18:05 | 26.29086 | 49.76176 | 10271 ft | 260 kts | 324° |
| 2026-04-22 18:05 | 26.30778 | 49.75415 | 9664 ft | 267 kts | 345° |
| 2026-04-22 18:06 | 26.32643 | 49.75351 | 8991 ft | 271 kts | 6° |
| 2026-04-22 18:06 | 26.34438 | 49.75987 | 8402 ft | 271 kts | 24° |
| 2026-04-22 18:06 | 26.36005 | 49.77128 | 7817 ft | 269 kts | 45° |
| 2026-04-22 18:06 | 26.37116 | 49.78780 | 7334 ft | 266 kts | 57° |
| 2026-04-22 18:07 | 26.37796 | 49.79919 | 7226 ft | 267 kts | 56° |
| 2026-04-22 18:07 | 26.39168 | 49.82136 | 6917 ft | 252 kts | 55° |
| 2026-04-22 18:07 | 26.40143 | 49.83698 | 6533 ft | 241 kts | 55° |
| 2026-04-22 18:07 | 26.40984 | 49.85249 | 6207 ft | 226 kts | 71° |
| 2026-04-22 18:08 | 26.41265 | 49.86909 | 5848 ft | 213 kts | 88° |
| 2026-04-22 18:08 | 26.41254 | 49.87990 | 5550 ft | 209 kts | 95° |
| 2026-04-22 18:08 | 26.40989 | 49.89553 | 5135 ft | 202 kts | 108° |
| 2026-04-22 18:08 | 26.40409 | 49.90975 | 4791 ft | 203 kts | 121° |
| 2026-04-22 18:09 | 26.39506 | 49.92203 | 4430 ft | 207 kts | 136° |
| 2026-04-22 18:09 | 26.38346 | 49.93104 | 4193 ft | 199 kts | 153° |
| 2026-04-22 18:09 | 26.37071 | 49.93600 | 3940 ft | 191 kts | 168° |
| 2026-04-22 18:09 | 26.35768 | 49.93702 | 3666 ft | 186 kts | 184° |
| 2026-04-22 18:10 | 26.34490 | 49.93448 | 3433 ft | 188 kts | 195° |
| 2026-04-22 18:10 | 26.33250 | 49.92995 | 3266 ft | 188 kts | 202° |
| 2026-04-22 18:10 | 26.32115 | 49.92309 | 3100 ft | 187 kts | 227° |
| 2026-04-22 18:10 | 26.31234 | 49.90950 | 3149 ft | 237 kts | 237° |
| 2026-04-22 18:11 | 26.30288 | 49.89476 | 3063 ft | 229 kts | 236° |
| 2026-04-22 18:11 | 26.29403 | 49.88091 | 3002 ft | 208 kts | 244° |
| 2026-04-22 18:11 | 26.29117 | 49.86618 | 3011 ft | 190 kts | 279° |
| 2026-04-22 18:11 | 26.29461 | 49.85250 | 3036 ft | 180 kts | 300° |
| 2026-04-22 18:12 | 26.30288 | 49.84287 | 3022 ft | 171 kts | 339° |
| 2026-04-22 18:12 | 26.31420 | 49.83810 | 3039 ft | 179 kts | 341° |
| 2026-04-22 18:12 | 26.32604 | 49.83271 | 2699 ft | 185 kts | 341° |
| 2026-04-22 18:12 | 26.33807 | 49.82809 | 2422 ft | 179 kts | 345° |
| 2026-04-22 18:13 | 26.34973 | 49.82431 | 2177 ft | 170 kts | 346° |
| 2026-04-22 18:13 | 26.36082 | 49.82089 | 1944 ft | 160 kts | 348° |
| 2026-04-22 18:13 | 26.37149 | 49.81767 | 1738 ft | 156 kts | 347° |
| 2026-04-22 18:13 | 26.38160 | 49.81448 | 1472 ft | 147 kts | 347° |
| 2026-04-22 18:14 | 26.39117 | 49.81150 | 1274 ft | 140 kts | 349° |
| 2026-04-22 18:14 | 26.40062 | 49.80868 | 1103 ft | 143 kts | 348° |
| 2026-04-22 18:14 | 26.40988 | 49.80571 | 903 ft | 134 kts | 345° |
| 2026-04-22 18:14 | 26.41872 | 49.80297 | 793 ft | 132 kts | 346° |
| 2026-04-22 18:15 | 26.42766 | 49.80003 | 631 ft | 135 kts | 345° |
| 2026-04-22 18:15 | 26.43676 | 49.79727 | 412 ft | 134 kts | 351° |
| 2026-04-22 18:15 | 26.44557 | 49.79474 | 246 ft | 128 kts | 347° |
| 2026-04-22 18:15 | 26.45411 | 49.79200 | 135 ft | 127 kts | 349° |
| 2026-04-22 18:16 | 26.46234 | 49.78947 | 88 ft | 112 kts | 345° |
| 2026-04-22 18:16 | 26.46816 | 49.78769 | 86 ft | 70 kts | 343° |
| 2026-04-22 18:16 | 26.47103 | 49.78717 | 84 ft | 18 kts | 10° |
| 2026-04-22 18:16 | 26.47172 | 49.78733 | 84 ft | 6 kts | 8° |
| 2026-04-22 18:17 | 26.47214 | 49.78742 | 86 ft | 7 kts | 10° |
| 2026-04-22 18:17 | 26.47260 | 49.78751 | 83 ft | 7 kts | 10° |
| 2026-04-22 18:17 | 26.47306 | 49.78764 | 85 ft | 7 kts | 16° |
| 2026-04-22 18:17 | 26.47352 | 49.78779 | 84 ft | 7 kts | 16° |
| 2026-04-22 18:18 | 26.47399 | 49.78795 | 83 ft | 7 kts | 20° |
| 2026-04-22 18:18 | 26.47437 | 49.78829 | 86 ft | 7 kts | 52° |
| 2026-04-22 18:18 | 26.47450 | 49.78854 | 85 ft | 0 kts | 67° |
| 2026-04-22 18:18 | 26.47450 | 49.78856 | 85 ft | 0 kts | 73° |
| 2026-04-22 18:19 | 26.47450 | 49.78858 | 85 ft | 1 kts | 81° |
| 2026-04-22 18:19 | 26.47438 | 49.78876 | 86 ft | 6 kts | 134° |
| 2026-04-22 18:19 | 26.47393 | 49.78908 | 86 ft | 10 kts | 153° |
| 2026-04-22 18:19 | 26.47310 | 49.78938 | 84 ft | 15 kts | 165° |
| 2026-04-22 18:20 | 26.47191 | 49.78975 | 86 ft | 20 kts | 164° |
| 2026-04-22 18:20 | 26.47050 | 49.79022 | 87 ft | 15 kts | 163° |
| 2026-04-22 18:20 | 26.46988 | 49.79113 | 83 ft | 17 kts | 85° |
| 2026-04-22 18:20 | 26.47015 | 49.79241 | 87 ft | 17 kts | 71° |
| 2026-04-22 18:21 | 26.47088 | 49.79288 | 85 ft | 13 kts | 351° |
| 2026-04-22 18:21 | 26.47134 | 49.79328 | 86 ft | 8 kts | 60° |
| 2026-04-22 18:21 | 26.47144 | 49.79350 | 87 ft | 1 kts | 62° |
| 2026-04-22 18:21 | 26.47149 | 49.79360 | 87 ft | 0 kts | 62° |
| 2026-04-22 18:22 | 26.47149 | 49.79361 | 86 ft | 0 kts | 62° |
| 2026-04-22 18:22 | 26.47149 | 49.79360 | 86 ft | 0 kts | 62° |